This is the latest recevied weather packets stored in our database for station/object N0EDB-13. If no packets are shown the sender has not sent any weather packets the latest 10 day(s).
| Time | Temp. | Humidity | Pressure | Rain* | Wind** | Luminosity | Snow |
|---|---|---|---|---|---|---|---|
| 1788138061 | 73° F | 54% | 1103.1 mmHg | 0 in | - | 27 W/m² | - |
| 1788137760 | 74° F | 57% | 1102.6 mmHg | 0 in | - | 37 W/m² | - |
| 1788137459 | 74° F | 55% | 1101.9 mmHg | 0 in | - | 40 W/m² | - |
| 1788137159 | 75° F | 54% | 1101 mmHg | 0 in | - | 46 W/m² | - |
| 1788136858 | 76° F | 49% | 1100.5 mmHg | 0 in | - | 54 W/m² | - |
| 1788136557 | 76° F | 50% | 1099.9 mmHg | 0 in | - | 50 W/m² | - |
| 1788136257 | 77° F | 49% | 1098.9 mmHg | 0 in | - | 49 W/m² | - |
| 1788135956 | 78° F | 46% | 1098.2 mmHg | 0 in | - | 44 W/m² | - |
| 1788135655 | 78° F | 43% | 1098 mmHg | 0 in | - | 46 W/m² | - |
| 1788135355 | 78° F | 43% | 1097.9 mmHg | 0 in | - | 82 W/m² | - |
| 1788135055 | 79° F | 44% | 1097.6 mmHg | 0 in | - | 191 W/m² | - |
| 1788134754 | 79° F | 43% | 1097.6 mmHg | 0 in | - | 254 W/m² | - |
| 1788134453 | 79° F | 42% | 1097.4 mmHg | 0 in | - | 149 W/m² | - |
| 1788134153 | 80° F | 40% | 1096.9 mmHg | 0 in | - | 98 W/m² | - |
| 1788133852 | 80° F | 39% | 1096.6 mmHg | 0 in | - | 126 W/m² | - |
| 1788133552 | 80° F | 40% | 1096.3 mmHg | 0 in | - | 212 W/m² | - |
| 1788133252 | 81° F | 40% | 1095.9 mmHg | 0 in | - | 155 W/m² | - |
| 1788132951 | 81° F | 39% | 1095.8 mmHg | 0 in | - | 350 W/m² | - |
| 1788132650 | 80° F | 41% | 1096.2 mmHg | 0 in | - | 295 W/m² | - |
| 1788132350 | 80° F | 40% | 1096.7 mmHg | 0 in | - | 408 W/m² | - |
| 1788132050 | 79° F | 40% | 1097.9 mmHg | 0 in | - | 411 W/m² | - |
| 1788131748 | 78° F | 42% | 1098.6 mmHg | 0 in | - | 180 W/m² | - |
| 1788131448 | 77° F | 43% | 1099.7 mmHg | 0 in | - | 342 W/m² | - |
| 1788131148 | 76° F | 46% | 1101.2 mmHg | 0 in | - | 556 W/m² | - |
| 1788130847 | 75° F | 48% | 1101.9 mmHg | 0 in | - | 257 W/m² | - |
* Rain latest hour (hover to see other rain measurements)
** Current wind speed in m/s (hover to see current wind gust speed)